createdAt,value
2019-06-20T00:01:27.578Z,11.83
2019-06-20T00:04:00.974Z,8.40
2019-06-20T00:06:34.386Z,12.40
2019-06-20T00:09:08.697Z,11.53
2019-06-20T00:11:42.097Z,14.10
2019-06-20T00:14:15.752Z,12.03
2019-06-20T00:16:49.241Z,11.10
2019-06-20T00:19:22.623Z,8.03
2019-06-20T00:21:56.044Z,7.97
2019-06-20T00:24:29.666Z,13.80
2019-06-20T00:27:03.067Z,8.95
2019-06-20T00:29:36.461Z,9.78
2019-06-20T00:32:09.852Z,10.80
2019-06-20T00:34:43.258Z,10.95
2019-06-20T00:37:16.645Z,9.70
2019-06-20T00:39:50.034Z,9.78
2019-06-20T00:42:23.429Z,10.38
2019-06-20T00:44:57.799Z,11.57
2019-06-20T00:47:31.449Z,11.80
2019-06-20T00:50:05.867Z,9.35
2019-06-20T00:52:39.240Z,9.33
2019-06-20T00:55:12.641Z,15.98
2019-06-20T00:57:46.034Z,12.15
2019-06-20T01:00:21.632Z,12.47
2019-06-20T01:02:55.025Z,12.03
2019-06-20T01:05:28.507Z,11.25
2019-06-20T01:08:01.942Z,11.97
2019-06-20T01:10:35.613Z,9.55
2019-06-20T01:13:09.262Z,10.03
2019-06-20T01:15:42.731Z,8.90
2019-06-20T01:18:16.126Z,7.67
2019-06-20T01:20:49.757Z,7.28
2019-06-20T01:23:23.463Z,7.72
2019-06-20T01:25:57.114Z,10.15
2019-06-20T01:28:30.506Z,9.55
2019-06-20T01:31:03.907Z,12.28
2019-06-20T01:33:37.318Z,9.00
2019-06-20T01:36:10.725Z,15.53
2019-06-20T01:38:44.117Z,11.57
2019-06-20T01:41:17.503Z,9.43
2019-06-20T01:43:51.283Z,12.80
2019-06-20T01:46:24.677Z,8.33
2019-06-20T01:48:58.132Z,9.73
2019-06-20T01:51:31.546Z,9.13
2019-06-20T01:54:05.021Z,9.25
2019-06-20T01:56:38.397Z,15.68
2019-06-20T01:59:12.574Z,9.08
2019-06-20T02:01:46.220Z,7.80
2019-06-20T02:04:19.629Z,11.00
2019-06-20T02:06:53.098Z,11.38
2019-06-20T02:09:26.477Z,7.90
2019-06-20T02:12:00.138Z,10.05
2019-06-20T02:14:33.522Z,9.65
2019-06-20T02:17:07.174Z,9.83
2019-06-20T02:19:40.809Z,7.70
2019-06-20T02:22:14.213Z,8.88
2019-06-20T02:24:47.594Z,9.88
2019-06-20T02:27:21.668Z,8.05
2019-06-20T02:29:55.297Z,10.00
2019-06-20T02:32:28.699Z,13.10
2019-06-20T02:35:02.425Z,8.13
2019-06-20T02:37:35.826Z,8.53
2019-06-20T02:40:09.696Z,10.03
2019-06-20T02:42:43.413Z,8.05
2019-06-20T02:45:16.983Z,9.93
2019-06-20T02:47:50.409Z,7.58
2019-06-20T02:50:23.923Z,9.38
2019-06-20T02:52:59.689Z,16.62
2019-06-20T02:55:33.423Z,7.95
2019-06-20T02:58:06.828Z,9.25
2019-06-20T03:00:52.694Z,8.23
2019-06-20T03:03:27.238Z,11.48
2019-06-20T03:06:00.876Z,11.78
2019-06-20T03:08:34.342Z,9.48
2019-06-20T03:11:07.730Z,10.50
2019-06-20T03:13:41.430Z,9.93
2019-06-20T03:16:14.797Z,12.13
2019-06-20T03:18:48.425Z,8.80
2019-06-20T03:21:22.054Z,9.40
2019-06-20T03:23:55.467Z,9.58
2019-06-20T03:26:29.100Z,10.58
2019-06-20T03:29:02.747Z,9.68
2019-06-20T03:31:36.155Z,8.23
2019-06-20T03:34:09.793Z,12.33
2019-06-20T03:36:43.208Z,9.40
2019-06-20T03:39:16.839Z,11.12
2019-06-20T03:41:50.242Z,12.15
2019-06-20T03:44:23.644Z,12.28
2019-06-20T03:46:57.280Z,13.98
2019-06-20T03:49:30.935Z,12.68
2019-06-20T03:52:04.342Z,15.10
2019-06-20T03:54:37.810Z,14.33
2019-06-20T03:57:11.205Z,9.88
2019-06-20T03:59:44.610Z,13.00
2019-06-20T04:02:18.250Z,11.83
2019-06-20T04:04:51.892Z,14.13
2019-06-20T04:07:25.299Z,11.70
2019-06-20T04:09:58.707Z,11.57
2019-06-20T04:12:32.104Z,10.58
2019-06-20T04:15:18.713Z,15.75
2019-06-20T04:17:42.013Z,12.18
2019-06-20T04:20:15.938Z,17.45
2019-06-20T04:22:49.338Z,10.85
2019-06-20T04:25:22.816Z,12.35
2019-06-20T04:27:56.274Z,12.23
2019-06-20T04:30:29.752Z,8.40
2019-06-20T04:33:03.084Z,12.35
2019-06-20T04:35:36.510Z,12.90
2019-06-20T04:38:09.900Z,11.78
2019-06-20T04:40:43.304Z,10.75
2019-06-20T04:43:16.705Z,10.18
2019-06-20T04:45:51.744Z,11.55
2019-06-20T04:48:25.130Z,11.20
2019-06-20T04:50:58.788Z,10.85
2019-06-20T04:53:32.169Z,11.12
2019-06-20T04:56:05.976Z,15.23
2019-06-20T04:58:39.508Z,11.97
2019-06-20T05:01:12.989Z,12.15
2019-06-20T05:03:46.398Z,14.28
2019-06-20T05:06:19.822Z,12.03
2019-06-20T05:08:53.215Z,13.00
2019-06-20T05:11:26.618Z,9.43
2019-06-20T05:14:01.380Z,10.88
2019-06-20T05:16:34.778Z,9.65
2019-06-20T05:19:08.189Z,9.65
2019-06-20T05:21:41.595Z,10.75
2019-06-20T05:24:15.002Z,11.35
2019-06-20T05:26:48.649Z,10.00
2019-06-20T05:29:22.040Z,9.50
2019-06-20T05:31:55.427Z,10.53
2019-06-20T05:34:29.097Z,10.98
2019-06-20T05:37:02.486Z,10.90
2019-06-20T05:39:36.138Z,10.28
2019-06-20T05:42:09.541Z,9.48
2019-06-20T05:44:43.184Z,10.80
2019-06-20T05:47:17.790Z,8.65
2019-06-20T05:49:51.471Z,11.48
2019-06-20T05:52:24.858Z,12.53
2019-06-20T05:54:58.261Z,9.88
2019-06-20T05:57:31.909Z,11.33
2019-06-20T06:00:12.256Z,10.15
2019-06-20T06:02:45.656Z,12.47
2019-06-20T06:05:19.412Z,11.12
2019-06-20T06:07:53.047Z,9.33
2019-06-20T06:10:26.458Z,10.20
2019-06-20T06:12:59.866Z,10.28
2019-06-20T06:15:33.360Z,13.00
2019-06-20T06:18:06.993Z,9.13
2019-06-20T06:20:40.398Z,11.10
2019-06-20T06:23:13.785Z,9.88
2019-06-20T06:25:47.187Z,9.95
2019-06-20T06:28:20.577Z,9.73
2019-06-20T06:30:54.228Z,9.58
2019-06-20T06:33:27.631Z,10.65
2019-06-20T06:36:01.281Z,8.85
2019-06-20T06:38:34.871Z,12.30
2019-06-20T06:41:08.267Z,12.25
2019-06-20T06:43:42.259Z,10.15
2019-06-20T06:46:15.750Z,12.15
2019-06-20T06:48:49.379Z,8.25
2019-06-20T06:51:22.798Z,14.15
2019-06-20T06:53:56.207Z,10.25
2019-06-20T06:56:29.660Z,10.88
2019-06-20T06:59:03.052Z,8.63
2019-06-20T07:01:36.459Z,10.93
2019-06-20T07:04:09.854Z,9.30
2019-06-20T07:06:43.662Z,10.80
2019-06-20T07:09:16.990Z,12.15
2019-06-20T07:11:50.644Z,17.17
2019-06-20T07:14:24.029Z,12.73
2019-06-20T07:17:00.522Z,12.05
2019-06-20T07:19:32.561Z,15.88
2019-06-20T07:22:06.033Z,12.63
2019-06-20T07:24:39.447Z,12.88
2019-06-20T07:27:13.971Z,13.48
2019-06-20T07:29:48.539Z,12.95
2019-06-20T07:32:23.175Z,14.25
2019-06-20T07:34:56.563Z,13.90
2019-06-20T07:37:29.970Z,14.75
2019-06-20T07:40:05.354Z,14.30
2019-06-20T07:42:38.755Z,13.65
2019-06-20T07:45:12.792Z,11.75
2019-06-20T07:47:46.225Z,11.30
2019-06-20T07:50:19.839Z,12.45
2019-06-20T07:53:02.110Z,11.97
2019-06-20T07:55:28.520Z,11.03
2019-06-20T07:58:01.938Z,12.00
2019-06-20T08:00:35.354Z,12.25
2019-06-20T08:03:08.817Z,13.05
2019-06-20T08:05:42.260Z,12.93
2019-06-20T08:08:15.664Z,11.65
2019-06-20T08:10:49.057Z,9.98
2019-06-20T08:13:22.554Z,11.60
2019-06-20T08:15:55.982Z,14.65
2019-06-20T08:18:29.381Z,14.73
2019-06-20T08:21:02.838Z,14.40
2019-06-20T08:23:36.533Z,12.50
2019-06-20T08:26:10.102Z,14.18
2019-06-20T08:28:43.755Z,11.38
2019-06-20T08:31:17.392Z,9.73
2019-06-20T08:33:51.144Z,14.07
2019-06-20T08:36:25.565Z,14.07
2019-06-20T08:39:00.258Z,10.32
2019-06-20T08:41:34.028Z,10.98
2019-06-20T08:44:07.870Z,12.13
2019-06-20T08:46:41.281Z,11.85
2019-06-20T08:49:14.936Z,14.98
2019-06-20T08:51:48.354Z,13.22
2019-06-20T08:54:21.752Z,14.85
2019-06-20T08:56:57.063Z,14.13
2019-06-20T08:59:30.311Z,12.53
2019-06-20T09:04:38.207Z,13.25
2019-06-20T09:07:11.645Z,12.53
2019-06-20T09:09:45.038Z,13.55
2019-06-20T09:12:18.453Z,12.98
2019-06-20T09:14:52.620Z,12.93
2019-06-20T09:17:26.986Z,13.78
2019-06-20T09:20:00.385Z,13.88
2019-06-20T09:22:33.787Z,12.47
2019-06-20T09:25:08.024Z,13.08
2019-06-20T09:27:41.525Z,13.53
2019-06-20T09:30:16.993Z,12.47
2019-06-20T09:32:52.273Z,13.95
2019-06-20T09:35:25.839Z,12.73
2019-06-20T09:37:59.472Z,20.32
2019-06-20T09:40:32.845Z,13.18
2019-06-20T09:43:06.426Z,13.98
2019-06-20T09:45:39.972Z,13.58
2019-06-20T09:48:13.378Z,13.53
2019-06-20T09:50:49.350Z,14.53
2019-06-20T09:53:22.092Z,13.25
2019-06-20T09:55:55.768Z,12.75
2019-06-20T09:58:29.190Z,11.53
2019-06-20T10:01:02.581Z,11.93
2019-06-20T10:03:35.988Z,11.20
2019-06-20T10:06:13.914Z,11.12
2019-06-20T10:08:46.601Z,14.10
2019-06-20T10:11:19.903Z,11.20
2019-06-20T10:13:54.289Z,12.00
2019-06-20T10:16:28.017Z,10.28
2019-06-20T10:19:01.525Z,10.88
2019-06-20T10:21:34.986Z,10.03
2019-06-20T10:24:08.517Z,8.78
2019-06-20T10:26:41.902Z,8.48
2019-06-20T10:29:15.436Z,8.10
2019-06-20T10:31:49.097Z,10.35
2019-06-20T10:34:22.494Z,9.98
2019-06-20T10:36:57.075Z,11.18
2019-06-20T10:39:30.580Z,11.15
2019-06-20T10:42:04.103Z,9.93
2019-06-20T10:44:37.499Z,9.50
2019-06-20T10:47:10.996Z,13.10
2019-06-20T10:49:45.044Z,7.37
2019-06-20T10:52:19.823Z,8.98
2019-06-20T10:54:53.474Z,6.40
2019-06-20T10:57:26.939Z,8.00
2019-06-20T11:00:00.409Z,8.45
2019-06-20T11:02:33.816Z,6.60
2019-06-20T11:05:07.730Z,6.25
2019-06-20T11:07:42.482Z,10.68
2019-06-20T11:10:17.027Z,8.20
2019-06-20T11:12:55.745Z,7.85
2019-06-20T11:15:26.181Z,5.95
2019-06-20T11:17:59.633Z,6.30
2019-06-20T11:20:33.797Z,7.17
2019-06-20T11:23:07.363Z,8.70
2019-06-20T11:25:42.007Z,7.75
2019-06-20T11:28:15.433Z,5.95
2019-06-20T11:30:59.538Z,6.08
2019-06-20T11:33:24.247Z,7.72
2019-06-20T11:35:57.888Z,7.75
2019-06-20T11:38:31.350Z,7.33
2019-06-20T11:41:04.821Z,7.35
2019-06-20T11:43:38.446Z,8.40
2019-06-20T11:46:11.799Z,7.55
2019-06-20T11:48:47.109Z,6.75
2019-06-20T11:51:20.763Z,7.37
2019-06-20T11:53:54.166Z,6.92
2019-06-20T11:56:27.554Z,7.17
2019-06-20T11:59:01.014Z,9.03
2019-06-20T12:01:55.168Z,7.17
2019-06-20T12:04:29.075Z,6.42
2019-06-20T12:07:02.454Z,7.28
2019-06-20T12:09:36.614Z,7.55
2019-06-20T12:12:10.128Z,5.08
2019-06-20T12:14:44.298Z,4.75
2019-06-20T12:17:17.674Z,8.30
2019-06-20T12:19:51.073Z,5.65
2019-06-20T12:22:24.466Z,5.67
2019-06-20T12:24:57.883Z,6.47
2019-06-20T12:27:31.349Z,8.20
2019-06-20T12:30:07.351Z,5.37
2019-06-20T12:32:42.361Z,7.50
2019-06-20T12:35:16.022Z,6.08
2019-06-20T12:37:50.126Z,6.25
2019-06-20T12:40:24.252Z,4.85
2019-06-20T12:42:57.649Z,8.23
2019-06-20T12:45:31.070Z,4.87
2019-06-20T12:48:04.532Z,6.87
2019-06-20T12:50:38.515Z,5.22
2019-06-20T12:53:13.323Z,5.87
2019-06-20T12:55:47.541Z,4.45
2019-06-20T12:58:20.982Z,7.65
2019-06-20T13:00:54.530Z,5.72
2019-06-20T13:03:27.878Z,5.25
2019-06-20T13:06:01.345Z,6.37
2019-06-20T13:08:35.183Z,5.03
2019-06-20T13:11:09.007Z,4.65
2019-06-20T13:13:53.342Z,6.35
2019-06-20T13:16:26.875Z,5.47
2019-06-20T13:19:00.627Z,6.33
2019-06-20T13:21:34.104Z,9.18
2019-06-20T13:24:07.563Z,5.28
2019-06-20T13:26:42.348Z,8.33
2019-06-20T13:29:15.766Z,4.85
2019-06-20T13:32:02.089Z,5.95
2019-06-20T13:34:24.351Z,7.53
2019-06-20T13:36:57.854Z,5.12
2019-06-20T13:39:31.347Z,6.20
2019-06-20T13:42:04.851Z,5.50
2019-06-20T13:44:39.620Z,5.53
2019-06-20T13:47:13.519Z,6.20
2019-06-20T13:49:47.733Z,5.33
2019-06-20T13:52:21.372Z,6.53
2019-06-20T13:54:55.365Z,6.70
2019-06-20T13:57:28.750Z,4.62
2019-06-20T14:00:02.130Z,4.95
2019-06-20T14:02:35.527Z,4.20
2019-06-20T14:05:10.278Z,4.75
2019-06-20T14:07:48.339Z,3.60
2019-06-20T14:10:19.665Z,5.03
2019-06-20T14:12:53.100Z,4.42
2019-06-20T14:15:26.494Z,4.85
2019-06-20T14:17:59.900Z,6.15
2019-06-20T14:20:33.286Z,6.08
2019-06-20T14:23:06.682Z,3.85
2019-06-20T14:25:40.323Z,3.98
2019-06-20T14:28:13.727Z,4.58
2019-06-20T14:30:48.346Z,5.95
2019-06-20T14:33:21.791Z,4.03
2019-06-20T14:35:55.449Z,3.90
2019-06-20T14:38:28.946Z,5.30
2019-06-20T14:41:02.342Z,6.17
2019-06-20T14:43:35.757Z,5.60
2019-06-20T14:46:09.387Z,7.15
2019-06-20T14:48:43.555Z,4.28
2019-06-20T14:51:17.908Z,4.80
2019-06-20T14:53:52.701Z,6.80
2019-06-20T14:56:26.142Z,4.40
2019-06-20T14:58:59.577Z,6.08
2019-06-20T15:01:32.975Z,8.35
2019-06-20T15:04:06.630Z,8.20
2019-06-20T15:06:40.021Z,3.55
2019-06-20T15:09:13.419Z,7.42
2019-06-20T15:11:48.194Z,4.78
2019-06-20T15:14:22.013Z,6.85
2019-06-20T15:16:55.653Z,5.92
2019-06-20T15:19:29.328Z,9.13
2019-06-20T15:22:02.729Z,5.90
2019-06-20T15:24:36.145Z,6.58
2019-06-20T15:27:09.624Z,9.15
2019-06-20T15:29:43.018Z,9.23
2019-06-20T15:32:16.664Z,5.22
2019-06-20T15:34:51.589Z,6.85
2019-06-20T15:37:25.227Z,5.62
2019-06-20T15:39:58.649Z,5.95
2019-06-20T15:42:32.335Z,5.15
2019-06-20T15:45:07.330Z,5.15
2019-06-20T15:47:40.810Z,6.80
2019-06-20T15:50:14.634Z,5.15
2019-06-20T15:52:48.275Z,4.87
2019-06-20T15:55:21.670Z,4.22
2019-06-20T15:57:55.071Z,6.15
2019-06-20T16:00:28.534Z,6.10
2019-06-20T16:03:09.896Z,5.53
2019-06-20T16:05:40.405Z,8.00
2019-06-20T16:08:12.215Z,9.63
2019-06-20T16:10:45.748Z,5.60
2019-06-20T16:13:19.404Z,6.08
2019-06-20T16:15:55.358Z,7.72
2019-06-20T16:18:28.772Z,5.35
2019-06-20T16:21:02.188Z,6.00
2019-06-20T16:23:36.555Z,5.95
2019-06-20T16:26:09.941Z,7.30
2019-06-20T16:28:43.343Z,6.17
2019-06-20T16:31:26.623Z,7.53
2019-06-20T16:33:52.880Z,5.55
2019-06-20T16:36:26.272Z,5.97
2019-06-20T16:38:59.929Z,7.65
2019-06-20T16:41:33.324Z,10.30
2019-06-20T16:44:06.793Z,7.30
2019-06-20T16:46:40.178Z,6.40
2019-06-20T16:49:13.582Z,6.22
2019-06-20T16:51:47.223Z,9.60
2019-06-20T16:54:20.903Z,8.63
2019-06-20T16:56:54.526Z,8.30
2019-06-20T16:59:27.979Z,8.05
2019-06-20T17:02:01.399Z,6.72
2019-06-20T17:04:34.885Z,7.08
2019-06-20T17:07:08.537Z,8.50
2019-06-20T17:09:41.950Z,9.90
2019-06-20T17:12:15.346Z,6.83
2019-06-20T17:14:48.744Z,6.08
2019-06-20T17:17:22.394Z,7.03
2019-06-20T17:19:56.047Z,6.67
2019-06-20T17:22:29.457Z,7.33
2019-06-20T17:25:03.129Z,5.80
2019-06-20T17:27:36.646Z,6.37
2019-06-20T17:30:12.236Z,4.87
2019-06-20T17:32:45.634Z,6.90
2019-06-20T17:35:19.378Z,6.03
2019-06-20T17:37:52.771Z,8.08
2019-06-20T17:40:26.324Z,9.70
2019-06-20T17:42:59.742Z,6.83
2019-06-20T17:45:33.190Z,7.92
2019-06-20T17:48:06.577Z,8.28
2019-06-20T17:50:40.008Z,9.30
2019-06-20T17:53:13.390Z,6.65
2019-06-20T17:55:46.782Z,6.12
2019-06-20T17:58:20.409Z,7.00
2019-06-20T18:00:53.907Z,6.78
2019-06-20T18:03:27.573Z,8.88
2019-06-20T18:06:00.957Z,8.68
2019-06-20T18:08:35.273Z,6.28
2019-06-20T18:11:08.668Z,6.95
2019-06-20T18:13:42.045Z,7.03
2019-06-20T18:16:25.151Z,6.08
2019-06-20T18:18:50.567Z,6.28
2019-06-20T18:21:24.205Z,8.48
2019-06-20T18:23:57.590Z,6.72
2019-06-20T18:26:31.006Z,7.33
2019-06-20T18:29:04.470Z,5.97
2019-06-20T18:31:37.867Z,6.90
2019-06-20T18:34:11.503Z,7.45
2019-06-20T18:36:44.901Z,6.53
2019-06-20T18:39:18.295Z,8.00
2019-06-20T18:41:51.702Z,8.18
2019-06-20T18:44:25.830Z,7.47
2019-06-20T18:46:59.241Z,7.15
2019-06-20T18:49:32.641Z,9.70
2019-06-20T18:52:06.038Z,7.85
2019-06-20T18:54:39.430Z,6.17
2019-06-20T18:57:12.829Z,8.08
2019-06-20T18:59:46.241Z,7.37
2019-06-20T19:02:19.868Z,5.83
2019-06-20T19:04:53.262Z,7.20
2019-06-20T19:07:26.645Z,6.33
2019-06-20T19:10:00.300Z,8.48
2019-06-20T19:12:33.935Z,7.47
2019-06-20T19:15:08.490Z,7.97
2019-06-20T19:17:41.872Z,6.45
2019-06-20T19:20:15.882Z,8.28
2019-06-20T19:22:49.336Z,7.25
2019-06-20T19:25:22.731Z,6.75
2019-06-20T19:27:56.383Z,10.93
2019-06-20T19:30:38.461Z,7.30
2019-06-20T19:33:11.849Z,6.62
2019-06-20T19:35:45.254Z,8.60
2019-06-20T19:38:18.647Z,9.90
2019-06-20T19:40:52.390Z,5.85
2019-06-20T19:43:25.782Z,8.23
2019-06-20T19:45:59.183Z,7.12
2019-06-20T19:48:32.575Z,7.37
2019-06-20T19:51:06.114Z,6.22
2019-06-20T19:53:39.871Z,6.08
2019-06-20T19:56:13.338Z,6.58
2019-06-20T19:58:46.727Z,6.53
2019-06-20T20:01:20.375Z,8.35
2019-06-20T20:03:53.770Z,6.95
2019-06-20T20:06:27.457Z,7.08
2019-06-20T20:09:01.180Z,9.25
2019-06-20T20:11:34.583Z,6.92
2019-06-20T20:14:07.968Z,9.00
2019-06-20T20:16:41.373Z,6.97
2019-06-20T20:19:14.763Z,7.45
2019-06-20T20:21:48.165Z,10.53
2019-06-20T20:24:21.591Z,8.45
2019-06-20T20:26:54.949Z,13.40
2019-06-20T20:29:28.337Z,8.88
2019-06-20T20:32:01.736Z,8.55
2019-06-20T20:34:35.131Z,7.35
2019-06-20T20:37:08.531Z,10.78
2019-06-20T20:39:41.966Z,9.00
2019-06-20T20:42:17.728Z,10.50
2019-06-20T20:44:50.431Z,10.30
2019-06-20T20:47:23.850Z,7.53
2019-06-20T20:49:57.492Z,8.95
2019-06-20T20:52:30.894Z,7.25
2019-06-20T20:55:06.967Z,6.45
2019-06-20T20:57:40.379Z,8.35
2019-06-20T21:00:28.545Z,8.25
2019-06-20T21:03:01.943Z,10.85
2019-06-20T21:05:50.430Z,10.32
2019-06-20T21:08:10.470Z,6.85
2019-06-20T21:10:44.898Z,10.32
2019-06-20T21:13:18.368Z,9.78
2019-06-20T21:15:51.762Z,11.53
2019-06-20T21:18:25.167Z,8.20
2019-06-20T21:20:58.564Z,9.98
2019-06-20T21:23:31.963Z,8.98
2019-06-20T21:26:05.419Z,6.17
2019-06-20T21:28:38.814Z,7.92
2019-06-20T21:31:12.650Z,12.63
2019-06-20T21:33:46.064Z,7.28
2019-06-20T21:36:19.455Z,9.98
2019-06-20T21:38:52.921Z,9.05
2019-06-20T21:41:26.368Z,9.13
2019-06-20T21:43:59.731Z,10.20
2019-06-20T21:46:33.128Z,12.43
2019-06-20T21:49:06.628Z,10.05
2019-06-20T21:51:40.070Z,8.80
2019-06-20T21:54:13.478Z,10.05
2019-06-20T21:56:46.859Z,9.45
2019-06-20T21:59:20.259Z,10.53
2019-06-20T22:01:53.903Z,11.80
2019-06-20T22:04:27.655Z,11.93
2019-06-20T22:07:01.284Z,15.72
2019-06-20T22:09:34.706Z,10.38
2019-06-20T22:12:08.081Z,13.18
2019-06-20T22:14:41.556Z,12.98
2019-06-20T22:17:15.213Z,11.80
2019-06-20T22:19:48.632Z,14.05
2019-06-20T22:22:22.093Z,12.73
2019-06-20T22:24:55.499Z,7.05
2019-06-20T22:27:29.166Z,9.68
2019-06-20T22:30:03.894Z,8.85
2019-06-20T22:32:37.837Z,9.73
2019-06-20T22:35:12.077Z,10.38
2019-06-20T22:37:45.470Z,8.73
2019-06-20T22:40:19.000Z,6.95
2019-06-20T22:42:52.393Z,11.55
2019-06-20T22:45:26.025Z,7.40
2019-06-20T22:47:59.431Z,8.80
2019-06-20T22:50:33.099Z,12.37
2019-06-20T22:53:06.904Z,10.05
2019-06-20T22:55:40.283Z,10.35
2019-06-20T22:58:13.937Z,7.95
2019-06-20T23:00:47.414Z,10.18
2019-06-20T23:03:20.978Z,8.70
2019-06-20T23:05:54.612Z,9.93
2019-06-20T23:08:28.017Z,11.83
2019-06-20T23:11:01.406Z,8.33
2019-06-20T23:13:35.077Z,12.73
2019-06-20T23:16:08.699Z,8.25
2019-06-20T23:18:42.091Z,6.85
2019-06-20T23:21:15.482Z,8.15
2019-06-20T23:23:48.882Z,6.25
2019-06-20T23:26:22.276Z,6.40
2019-06-20T23:29:13.597Z,10.20
2019-06-20T23:31:47.235Z,6.53
2019-06-20T23:34:20.698Z,7.28
2019-06-20T23:36:54.090Z,9.58
2019-06-20T23:39:28.522Z,9.93
2019-06-20T23:42:02.069Z,8.20
2019-06-20T23:44:35.472Z,5.30
2019-06-20T23:47:09.108Z,6.37
2019-06-20T23:49:42.518Z,5.53
2019-06-20T23:52:20.235Z,5.58
2019-06-20T23:54:53.624Z,7.03
2019-06-20T23:57:27.018Z,8.68
